sensor_id;sensor_type;location;lat;lon;timestamp;P1;durP1;ratioP1;P2;durP2;ratioP2
49376;SDS011;35253;34.688;33.040;2023-06-26T00:01:23;6.22;;;4.03;;
49376;SDS011;35253;34.688;33.040;2023-06-26T00:03:49;8.05;;;4.00;;
49376;SDS011;35253;34.688;33.040;2023-06-26T00:06:15;17.83;;;6.88;;
49376;SDS011;35253;34.688;33.040;2023-06-26T00:08:41;8.73;;;4.63;;
49376;SDS011;35253;34.688;33.040;2023-06-26T00:11:08;8.30;;;4.78;;
49376;SDS011;35253;34.688;33.040;2023-06-26T00:13:34;6.78;;;4.78;;
49376;SDS011;35253;34.688;33.040;2023-06-26T00:15:59;6.07;;;4.10;;
49376;SDS011;35253;34.688;33.040;2023-06-26T00:18:28;8.30;;;6.60;;
49376;SDS011;35253;34.688;33.040;2023-06-26T00:20:54;6.05;;;4.43;;
49376;SDS011;35253;34.688;33.040;2023-06-26T00:23:20;5.40;;;4.90;;
49376;SDS011;35253;34.688;33.040;2023-06-26T00:25:45;8.85;;;4.63;;
49376;SDS011;35253;34.688;33.040;2023-06-26T00:28:11;7.18;;;4.40;;
49376;SDS011;35253;34.688;33.040;2023-06-26T00:30:37;7.70;;;3.97;;
49376;SDS011;35253;34.688;33.040;2023-06-26T00:33:02;5.28;;;4.30;;
49376;SDS011;35253;34.688;33.040;2023-06-26T00:35:28;7.35;;;4.85;;
49376;SDS011;35253;34.688;33.040;2023-06-26T00:37:54;4.68;;;4.28;;
49376;SDS011;35253;34.688;33.040;2023-06-26T00:40:19;6.15;;;4.03;;
49376;SDS011;35253;34.688;33.040;2023-06-26T00:42:45;6.22;;;5.10;;
49376;SDS011;35253;34.688;33.040;2023-06-26T00:45:11;10.15;;;5.22;;
49376;SDS011;35253;34.688;33.040;2023-06-26T00:47:37;7.68;;;3.90;;
49376;SDS011;35253;34.688;33.040;2023-06-26T00:50:03;5.38;;;4.88;;
49376;SDS011;35253;34.688;33.040;2023-06-26T00:52:30;4.90;;;3.60;;
49376;SDS011;35253;34.688;33.040;2023-06-26T00:54:57;5.05;;;4.05;;
49376;SDS011;35253;34.688;33.040;2023-06-26T00:57:23;8.50;;;4.90;;
49376;SDS011;35253;34.688;33.040;2023-06-26T00:59:49;5.18;;;4.03;;
49376;SDS011;35253;34.688;33.040;2023-06-26T01:02:15;12.02;;;4.45;;
49376;SDS011;35253;34.688;33.040;2023-06-26T01:04:49;7.55;;;4.40;;
49376;SDS011;35253;34.688;33.040;2023-06-26T01:07:16;8.77;;;4.63;;
49376;SDS011;35253;34.688;33.040;2023-06-26T01:09:44;6.75;;;4.47;;
49376;SDS011;35253;34.688;33.040;2023-06-26T01:12:12;5.95;;;5.43;;
49376;SDS011;35253;34.688;33.040;2023-06-26T01:14:38;7.38;;;4.50;;
49376;SDS011;35253;34.688;33.040;2023-06-26T01:17:04;5.75;;;4.50;;
49376;SDS011;35253;34.688;33.040;2023-06-26T01:19:31;4.68;;;4.13;;
49376;SDS011;35253;34.688;33.040;2023-06-26T01:25:13;7.28;;;4.85;;
49376;SDS011;35253;34.688;33.040;2023-06-26T01:27:47;9.60;;;5.20;;
49376;SDS011;35253;34.688;33.040;2023-06-26T01:30:15;9.67;;;4.77;;
49376;SDS011;35253;34.688;33.040;2023-06-26T01:32:42;8.35;;;4.30;;
49376;SDS011;35253;34.688;33.040;2023-06-26T01:35:09;11.07;;;6.10;;
49376;SDS011;35253;34.688;33.040;2023-06-26T01:37:37;10.10;;;4.57;;
49376;SDS011;35253;34.688;33.040;2023-06-26T01:40:03;7.78;;;4.43;;
49376;SDS011;35253;34.688;33.040;2023-06-26T01:42:35;7.50;;;4.90;;
49376;SDS011;35253;34.688;33.040;2023-06-26T01:45:10;7.57;;;5.35;;
49376;SDS011;35253;34.688;33.040;2023-06-26T01:47:44;5.30;;;4.40;;
49376;SDS011;35253;34.688;33.040;2023-06-26T01:50:21;5.20;;;3.97;;
49376;SDS011;35253;34.688;33.040;2023-06-26T01:52:52;8.32;;;4.95;;
49376;SDS011;35253;34.688;33.040;2023-06-26T01:55:44;6.43;;;4.90;;
49376;SDS011;35253;34.688;33.040;2023-06-26T01:58:14;7.22;;;4.72;;
49376;SDS011;35253;34.688;33.040;2023-06-26T02:00:42;5.40;;;4.63;;
49376;SDS011;35253;34.688;33.040;2023-06-26T02:03:08;7.15;;;4.82;;
49376;SDS011;35253;34.688;33.040;2023-06-26T02:05:34;5.97;;;4.63;;
49376;SDS011;35253;34.688;33.040;2023-06-26T02:07:59;6.85;;;4.57;;
49376;SDS011;35253;34.688;33.040;2023-06-26T02:10:28;10.82;;;4.95;;
49376;SDS011;35253;34.688;33.040;2023-06-26T02:12:55;6.53;;;4.90;;
49376;SDS011;35253;34.688;33.040;2023-06-26T02:15:20;5.18;;;4.68;;
49376;SDS011;35253;34.688;33.040;2023-06-26T02:17:46;5.18;;;4.68;;
49376;SDS011;35253;34.688;33.040;2023-06-26T02:20:13;5.32;;;4.80;;
49376;SDS011;35253;34.688;33.040;2023-06-26T02:22:40;5.32;;;4.82;;
49376;SDS011;35253;34.688;33.040;2023-06-26T02:25:06;8.25;;;5.03;;
49376;SDS011;35253;34.688;33.040;2023-06-26T02:27:32;6.22;;;5.07;;
49376;SDS011;35253;34.688;33.040;2023-06-26T02:29:58;7.05;;;4.55;;
49376;SDS011;35253;34.688;33.040;2023-06-26T02:32:24;5.13;;;3.58;;
49376;SDS011;35253;34.688;33.040;2023-06-26T02:34:49;6.50;;;4.63;;
49376;SDS011;35253;34.688;33.040;2023-06-26T02:37:17;6.07;;;4.45;;
49376;SDS011;35253;34.688;33.040;2023-06-26T02:39:43;5.75;;;4.47;;
49376;SDS011;35253;34.688;33.040;2023-06-26T02:42:08;7.53;;;5.00;;
49376;SDS011;35253;34.688;33.040;2023-06-26T02:44:34;9.27;;;4.80;;
49376;SDS011;35253;34.688;33.040;2023-06-26T02:47:00;6.57;;;4.15;;
49376;SDS011;35253;34.688;33.040;2023-06-26T02:49:25;4.82;;;4.38;;
49376;SDS011;35253;34.688;33.040;2023-06-26T02:51:51;9.38;;;4.93;;
49376;SDS011;35253;34.688;33.040;2023-06-26T02:54:17;7.63;;;4.78;;
49376;SDS011;35253;34.688;33.040;2023-06-26T02:56:42;7.28;;;4.57;;
49376;SDS011;35253;34.688;33.040;2023-06-26T02:59:08;5.15;;;4.60;;
49376;SDS011;35253;34.688;33.040;2023-06-26T03:01:34;6.78;;;4.72;;
49376;SDS011;35253;34.688;33.040;2023-06-26T03:03:59;6.90;;;4.47;;
49376;SDS011;35253;34.688;33.040;2023-06-26T03:06:26;38.33;;;9.38;;
49376;SDS011;35253;34.688;33.040;2023-06-26T03:08:52;16.98;;;7.25;;
49376;SDS011;35253;34.688;33.040;2023-06-26T03:11:18;11.02;;;5.63;;
49376;SDS011;35253;34.688;33.040;2023-06-26T03:13:44;12.55;;;5.55;;
49376;SDS011;35253;34.688;33.040;2023-06-26T03:16:10;18.27;;;6.25;;
49376;SDS011;35253;34.688;33.040;2023-06-26T03:18:36;14.48;;;5.72;;
49376;SDS011;35253;34.688;33.040;2023-06-26T03:21:02;12.93;;;5.30;;
49376;SDS011;35253;34.688;33.040;2023-06-26T03:23:28;7.50;;;5.25;;
49376;SDS011;35253;34.688;33.040;2023-06-26T03:25:53;12.35;;;5.00;;
49376;SDS011;35253;34.688;33.040;2023-06-26T03:28:19;10.40;;;5.43;;
49376;SDS011;35253;34.688;33.040;2023-06-26T03:30:45;8.43;;;5.15;;
49376;SDS011;35253;34.688;33.040;2023-06-26T03:33:10;12.30;;;6.00;;
49376;SDS011;35253;34.688;33.040;2023-06-26T03:35:36;11.02;;;5.65;;
49376;SDS011;35253;34.688;33.040;2023-06-26T03:38:03;11.60;;;5.93;;
49376;SDS011;35253;34.688;33.040;2023-06-26T03:40:29;10.85;;;5.00;;
49376;SDS011;35253;34.688;33.040;2023-06-26T03:42:55;13.98;;;7.28;;
49376;SDS011;35253;34.688;33.040;2023-06-26T03:45:21;8.55;;;4.97;;
49376;SDS011;35253;34.688;33.040;2023-06-26T03:47:46;9.55;;;4.38;;
49376;SDS011;35253;34.688;33.040;2023-06-26T03:50:17;14.40;;;4.95;;
49376;SDS011;35253;34.688;33.040;2023-06-26T03:52:42;8.00;;;4.97;;
49376;SDS011;35253;34.688;33.040;2023-06-26T03:55:08;6.88;;;5.10;;
49376;SDS011;35253;34.688;33.040;2023-06-26T03:57:34;11.77;;;5.32;;
49376;SDS011;35253;34.688;33.040;2023-06-26T04:00:00;10.90;;;5.20;;
49376;SDS011;35253;34.688;33.040;2023-06-26T04:02:25;10.82;;;4.97;;
49376;SDS011;35253;34.688;33.040;2023-06-26T04:04:51;11.57;;;6.13;;
49376;SDS011;35253;34.688;33.040;2023-06-26T04:07:18;9.00;;;5.07;;
49376;SDS011;35253;34.688;33.040;2023-06-26T04:09:44;9.80;;;5.65;;
49376;SDS011;35253;34.688;33.040;2023-06-26T04:12:10;12.45;;;5.97;;
49376;SDS011;35253;34.688;33.040;2023-06-26T04:14:36;11.07;;;5.28;;
49376;SDS011;35253;34.688;33.040;2023-06-26T04:17:01;10.75;;;5.22;;
49376;SDS011;35253;34.688;33.040;2023-06-26T04:19:28;9.82;;;4.35;;
49376;SDS011;35253;34.688;33.040;2023-06-26T04:21:55;8.05;;;5.43;;
49376;SDS011;35253;34.688;33.040;2023-06-26T04:24:21;10.15;;;5.18;;
49376;SDS011;35253;34.688;33.040;2023-06-26T04:26:46;8.20;;;4.85;;
49376;SDS011;35253;34.688;33.040;2023-06-26T04:29:12;12.68;;;5.15;;
49376;SDS011;35253;34.688;33.040;2023-06-26T04:31:38;11.15;;;4.93;;
49376;SDS011;35253;34.688;33.040;2023-06-26T04:34:04;8.60;;;4.78;;
49376;SDS011;35253;34.688;33.040;2023-06-26T04:36:30;9.57;;;5.13;;
49376;SDS011;35253;34.688;33.040;2023-06-26T04:38:56;6.35;;;5.45;;
49376;SDS011;35253;34.688;33.040;2023-06-26T04:41:24;8.52;;;4.70;;
49376;SDS011;35253;34.688;33.040;2023-06-26T04:43:49;12.40;;;4.88;;
49376;SDS011;35253;34.688;33.040;2023-06-26T04:46:15;8.77;;;4.97;;
49376;SDS011;35253;34.688;33.040;2023-06-26T04:48:41;7.20;;;5.43;;
49376;SDS011;35253;34.688;33.040;2023-06-26T04:51:07;8.77;;;5.00;;
49376;SDS011;35253;34.688;33.040;2023-06-26T04:53:33;9.68;;;4.80;;
49376;SDS011;35253;34.688;33.040;2023-06-26T04:55:59;10.60;;;5.53;;
49376;SDS011;35253;34.688;33.040;2023-06-26T04:58:24;39.65;;;8.63;;
49376;SDS011;35253;34.688;33.040;2023-06-26T05:00:50;9.80;;;6.03;;
49376;SDS011;35253;34.688;33.040;2023-06-26T05:03:16;7.25;;;5.15;;
49376;SDS011;35253;34.688;33.040;2023-06-26T05:05:43;8.63;;;5.32;;
49376;SDS011;35253;34.688;33.040;2023-06-26T05:08:15;17.30;;;7.82;;
49376;SDS011;35253;34.688;33.040;2023-06-26T05:10:48;12.35;;;7.70;;
49376;SDS011;35253;34.688;33.040;2023-06-26T05:13:14;8.50;;;5.00;;
49376;SDS011;35253;34.688;33.040;2023-06-26T05:15:43;16.52;;;8.18;;
49376;SDS011;35253;34.688;33.040;2023-06-26T05:18:09;14.43;;;5.35;;
49376;SDS011;35253;34.688;33.040;2023-06-26T05:20:35;15.88;;;5.75;;
49376;SDS011;35253;34.688;33.040;2023-06-26T05:23:02;6.65;;;5.28;;
49376;SDS011;35253;34.688;33.040;2023-06-26T05:25:28;8.45;;;5.93;;
49376;SDS011;35253;34.688;33.040;2023-06-26T05:27:55;11.32;;;5.60;;
49376;SDS011;35253;34.688;33.040;2023-06-26T05:30:24;14.98;;;5.93;;
49376;SDS011;35253;34.688;33.040;2023-06-26T05:32:51;7.57;;;5.90;;
49376;SDS011;35253;34.688;33.040;2023-06-26T05:35:19;12.48;;;7.07;;
49376;SDS011;35253;34.688;33.040;2023-06-26T05:37:48;12.13;;;5.95;;
49376;SDS011;35253;34.688;33.040;2023-06-26T05:40:15;8.82;;;6.63;;
49376;SDS011;35253;34.688;33.040;2023-06-26T05:42:42;9.07;;;6.93;;
49376;SDS011;35253;34.688;33.040;2023-06-26T05:45:09;13.65;;;7.22;;
49376;SDS011;35253;34.688;33.040;2023-06-26T05:47:35;11.38;;;6.05;;
49376;SDS011;35253;34.688;33.040;2023-06-26T05:50:00;12.77;;;7.30;;
49376;SDS011;35253;34.688;33.040;2023-06-26T05:52:26;10.93;;;7.13;;
49376;SDS011;35253;34.688;33.040;2023-06-26T05:54:52;13.50;;;7.07;;
49376;SDS011;35253;34.688;33.040;2023-06-26T05:57:19;16.08;;;8.27;;
49376;SDS011;35253;34.688;33.040;2023-06-26T05:59:46;12.57;;;6.38;;
49376;SDS011;35253;34.688;33.040;2023-06-26T06:02:12;11.02;;;6.43;;
49376;SDS011;35253;34.688;33.040;2023-06-26T06:04:38;10.18;;;7.07;;
49376;SDS011;35253;34.688;33.040;2023-06-26T06:07:04;9.95;;;6.43;;
49376;SDS011;35253;34.688;33.040;2023-06-26T06:09:30;12.45;;;8.10;;
49376;SDS011;35253;34.688;33.040;2023-06-26T06:11:55;16.52;;;7.95;;
49376;SDS011;35253;34.688;33.040;2023-06-26T06:14:21;18.00;;;10.57;;
49376;SDS011;35253;34.688;33.040;2023-06-26T06:16:47;16.13;;;7.75;;
49376;SDS011;35253;34.688;33.040;2023-06-26T06:19:13;9.50;;;7.50;;
49376;SDS011;35253;34.688;33.040;2023-06-26T06:21:39;10.73;;;7.90;;
49376;SDS011;35253;34.688;33.040;2023-06-26T06:24:05;11.23;;;7.72;;
49376;SDS011;35253;34.688;33.040;2023-06-26T06:26:34;10.85;;;7.05;;
49376;SDS011;35253;34.688;33.040;2023-06-26T06:29:00;13.85;;;6.88;;
49376;SDS011;35253;34.688;33.040;2023-06-26T06:31:26;8.95;;;7.20;;
49376;SDS011;35253;34.688;33.040;2023-06-26T06:33:55;16.27;;;7.38;;
49376;SDS011;35253;34.688;33.040;2023-06-26T06:36:20;10.27;;;7.22;;
49376;SDS011;35253;34.688;33.040;2023-06-26T06:38:46;12.57;;;7.82;;
49376;SDS011;35253;34.688;33.040;2023-06-26T06:41:12;17.80;;;9.15;;
49376;SDS011;35253;34.688;33.040;2023-06-26T06:43:38;10.27;;;6.90;;
49376;SDS011;35253;34.688;33.040;2023-06-26T06:46:04;11.57;;;7.72;;
49376;SDS011;35253;34.688;33.040;2023-06-26T06:48:31;10.77;;;7.07;;
49376;SDS011;35253;34.688;33.040;2023-06-26T06:50:56;10.15;;;6.75;;
49376;SDS011;35253;34.688;33.040;2023-06-26T06:53:22;14.43;;;7.30;;
49376;SDS011;35253;34.688;33.040;2023-06-26T06:55:48;13.95;;;7.93;;
49376;SDS011;35253;34.688;33.040;2023-06-26T06:58:14;12.43;;;7.80;;
49376;SDS011;35253;34.688;33.040;2023-06-26T07:00:48;10.75;;;6.93;;
49376;SDS011;35253;34.688;33.040;2023-06-26T07:03:14;11.00;;;7.22;;
49376;SDS011;35253;34.688;33.040;2023-06-26T07:05:43;11.45;;;7.35;;
49376;SDS011;35253;34.688;33.040;2023-06-26T07:08:09;18.35;;;9.20;;
49376;SDS011;35253;34.688;33.040;2023-06-26T07:10:35;28.52;;;10.32;;
49376;SDS011;35253;34.688;33.040;2023-06-26T07:13:01;13.43;;;7.47;;
49376;SDS011;35253;34.688;33.040;2023-06-26T07:15:27;21.30;;;9.10;;
49376;SDS011;35253;34.688;33.040;2023-06-26T07:17:53;16.75;;;8.98;;
49376;SDS011;35253;34.688;33.040;2023-06-26T07:20:18;17.90;;;8.38;;
49376;SDS011;35253;34.688;33.040;2023-06-26T07:22:44;12.82;;;8.20;;
49376;SDS011;35253;34.688;33.040;2023-06-26T07:25:11;12.75;;;7.50;;
49376;SDS011;35253;34.688;33.040;2023-06-26T07:27:37;13.57;;;8.38;;
49376;SDS011;35253;34.688;33.040;2023-06-26T07:30:03;15.55;;;8.77;;
49376;SDS011;35253;34.688;33.040;2023-06-26T07:32:29;12.68;;;8.43;;
49376;SDS011;35253;34.688;33.040;2023-06-26T07:34:55;14.98;;;8.65;;
49376;SDS011;35253;34.688;33.040;2023-06-26T07:37:21;15.45;;;8.80;;
49376;SDS011;35253;34.688;33.040;2023-06-26T07:39:47;17.63;;;8.88;;
49376;SDS011;35253;34.688;33.040;2023-06-26T07:42:14;14.35;;;7.50;;
49376;SDS011;35253;34.688;33.040;2023-06-26T07:44:41;12.88;;;7.55;;
49376;SDS011;35253;34.688;33.040;2023-06-26T07:47:07;10.45;;;7.68;;
49376;SDS011;35253;34.688;33.040;2023-06-26T07:49:33;11.05;;;7.72;;
49376;SDS011;35253;34.688;33.040;2023-06-26T07:51:59;14.60;;;7.53;;
49376;SDS011;35253;34.688;33.040;2023-06-26T07:54:24;9.88;;;7.45;;
49376;SDS011;35253;34.688;33.040;2023-06-26T07:57:00;20.08;;;9.85;;
49376;SDS011;35253;34.688;33.040;2023-06-26T07:59:28;9.95;;;7.50;;
49376;SDS011;35253;34.688;33.040;2023-06-26T08:01:55;12.05;;;8.23;;
49376;SDS011;35253;34.688;33.040;2023-06-26T08:04:22;22.25;;;9.00;;
49376;SDS011;35253;34.688;33.040;2023-06-26T08:06:50;10.65;;;7.47;;
49376;SDS011;35253;34.688;33.040;2023-06-26T08:09:18;10.05;;;7.57;;
49376;SDS011;35253;34.688;33.040;2023-06-26T08:11:45;13.18;;;8.40;;
49376;SDS011;35253;34.688;33.040;2023-06-26T08:14:11;13.32;;;8.73;;
49376;SDS011;35253;34.688;33.040;2023-06-26T08:16:40;11.63;;;7.22;;
49376;SDS011;35253;34.688;33.040;2023-06-26T08:19:07;11.88;;;7.93;;
49376;SDS011;35253;34.688;33.040;2023-06-26T08:21:33;8.38;;;6.85;;
49376;SDS011;35253;34.688;33.040;2023-06-26T08:23:58;12.25;;;7.60;;
49376;SDS011;35253;34.688;33.040;2023-06-26T08:26:24;16.25;;;8.30;;
49376;SDS011;35253;34.688;33.040;2023-06-26T08:28:50;14.93;;;7.95;;
49376;SDS011;35253;34.688;33.040;2023-06-26T08:31:16;15.52;;;8.10;;
49376;SDS011;35253;34.688;33.040;2023-06-26T08:33:42;15.38;;;9.45;;
49376;SDS011;35253;34.688;33.040;2023-06-26T08:36:08;17.45;;;10.73;;
49376;SDS011;35253;34.688;33.040;2023-06-26T08:38:34;15.05;;;8.82;;
49376;SDS011;35253;34.688;33.040;2023-06-26T08:40:59;11.88;;;8.13;;
49376;SDS011;35253;34.688;33.040;2023-06-26T08:43:25;10.50;;;7.63;;
49376;SDS011;35253;34.688;33.040;2023-06-26T08:45:52;10.43;;;7.60;;
49376;SDS011;35253;34.688;33.040;2023-06-26T08:48:18;15.25;;;8.93;;
49376;SDS011;35253;34.688;33.040;2023-06-26T08:50:47;11.63;;;8.02;;
49376;SDS011;35253;34.688;33.040;2023-06-26T08:56:17;15.90;;;8.57;;
49376;SDS011;35253;34.688;33.040;2023-06-26T08:58:46;15.60;;;8.10;;
49376;SDS011;35253;34.688;33.040;2023-06-26T09:01:12;11.57;;;6.47;;
49376;SDS011;35253;34.688;33.040;2023-06-26T09:03:38;13.98;;;7.25;;
49376;SDS011;35253;34.688;33.040;2023-06-26T09:06:06;15.18;;;9.05;;
49376;SDS011;35253;34.688;33.040;2023-06-26T09:08:32;10.80;;;7.05;;
49376;SDS011;35253;34.688;33.040;2023-06-26T09:10:58;13.73;;;8.30;;
49376;SDS011;35253;34.688;33.040;2023-06-26T09:13:23;10.75;;;7.28;;
49376;SDS011;35253;34.688;33.040;2023-06-26T09:15:49;14.23;;;7.28;;
49376;SDS011;35253;34.688;33.040;2023-06-26T09:18:20;17.42;;;8.50;;
49376;SDS011;35253;34.688;33.040;2023-06-26T09:20:46;11.38;;;8.32;;
49376;SDS011;35253;34.688;33.040;2023-06-26T09:23:13;10.90;;;7.15;;
49376;SDS011;35253;34.688;33.040;2023-06-26T09:25:39;12.50;;;7.63;;
49376;SDS011;35253;34.688;33.040;2023-06-26T09:28:06;14.57;;;7.82;;
49376;SDS011;35253;34.688;33.040;2023-06-26T09:30:33;13.35;;;6.20;;
49376;SDS011;35253;34.688;33.040;2023-06-26T09:33:18;16.35;;;8.18;;
49376;SDS011;35253;34.688;33.040;2023-06-26T09:35:45;8.60;;;7.13;;
49376;SDS011;35253;34.688;33.040;2023-06-26T09:38:12;8.57;;;6.93;;
49376;SDS011;35253;34.688;33.040;2023-06-26T09:40:38;11.05;;;7.80;;
49376;SDS011;35253;34.688;33.040;2023-06-26T09:43:07;11.45;;;7.15;;
49376;SDS011;35253;34.688;33.040;2023-06-26T09:45:35;14.07;;;6.78;;
49376;SDS011;35253;34.688;33.040;2023-06-26T09:48:02;12.60;;;8.15;;
49376;SDS011;35253;34.688;33.040;2023-06-26T09:50:29;12.60;;;8.02;;
49376;SDS011;35253;34.688;33.040;2023-06-26T09:52:57;13.90;;;7.38;;
49376;SDS011;35253;34.688;33.040;2023-06-26T09:55:23;13.15;;;6.53;;
49376;SDS011;35253;34.688;33.040;2023-06-26T09:57:50;10.40;;;7.30;;
49376;SDS011;35253;34.688;33.040;2023-06-26T10:00:17;18.83;;;7.07;;
49376;SDS011;35253;34.688;33.040;2023-06-26T10:02:43;8.77;;;6.68;;
49376;SDS011;35253;34.688;33.040;2023-06-26T10:05:09;13.95;;;7.32;;
49376;SDS011;35253;34.688;33.040;2023-06-26T10:07:35;11.18;;;6.72;;
49376;SDS011;35253;34.688;33.040;2023-06-26T10:10:03;11.40;;;7.75;;
49376;SDS011;35253;34.688;33.040;2023-06-26T10:12:32;16.17;;;8.02;;
49376;SDS011;35253;34.688;33.040;2023-06-26T10:14:59;15.50;;;8.32;;
49376;SDS011;35253;34.688;33.040;2023-06-26T10:17:29;14.70;;;7.20;;
49376;SDS011;35253;34.688;33.040;2023-06-26T10:19:58;18.53;;;9.73;;
49376;SDS011;35253;34.688;33.040;2023-06-26T10:22:28;16.10;;;8.23;;
49376;SDS011;35253;34.688;33.040;2023-06-26T10:24:58;11.95;;;8.23;;
49376;SDS011;35253;34.688;33.040;2023-06-26T10:27:28;13.52;;;7.90;;
49376;SDS011;35253;34.688;33.040;2023-06-26T10:30:02;12.60;;;6.47;;
49376;SDS011;35253;34.688;33.040;2023-06-26T10:32:30;9.40;;;6.10;;
49376;SDS011;35253;34.688;33.040;2023-06-26T10:34:57;9.95;;;6.20;;
49376;SDS011;35253;34.688;33.040;2023-06-26T10:40:12;15.20;;;8.35;;
49376;SDS011;35253;34.688;33.040;2023-06-26T10:42:39;10.88;;;7.20;;
49376;SDS011;35253;34.688;33.040;2023-06-26T10:45:15;16.02;;;9.75;;
49376;SDS011;35253;34.688;33.040;2023-06-26T10:47:53;13.25;;;7.85;;
49376;SDS011;35253;34.688;33.040;2023-06-26T10:50:20;11.05;;;7.75;;
49376;SDS011;35253;34.688;33.040;2023-06-26T10:55:43;14.13;;;7.72;;
49376;SDS011;35253;34.688;33.040;2023-06-26T11:03:39;8.80;;;5.97;;
49376;SDS011;35253;34.688;33.040;2023-06-26T11:08:46;11.38;;;7.43;;
49376;SDS011;35253;34.688;33.040;2023-06-26T11:11:17;13.63;;;6.80;;
49376;SDS011;35253;34.688;33.040;2023-06-26T11:13:44;15.85;;;7.40;;
49376;SDS011;35253;34.688;33.040;2023-06-26T11:16:11;12.38;;;6.30;;
49376;SDS011;35253;34.688;33.040;2023-06-26T11:18:38;15.57;;;6.72;;
49376;SDS011;35253;34.688;33.040;2023-06-26T11:21:11;14.77;;;8.43;;
49376;SDS011;35253;34.688;33.040;2023-06-26T11:23:40;11.50;;;6.80;;
49376;SDS011;35253;34.688;33.040;2023-06-26T11:26:16;9.27;;;6.63;;
49376;SDS011;35253;34.688;33.040;2023-06-26T11:28:55;11.13;;;7.35;;
49376;SDS011;35253;34.688;33.040;2023-06-26T11:33:57;13.77;;;7.45;;
49376;SDS011;35253;34.688;33.040;2023-06-26T11:36:24;11.52;;;7.00;;
49376;SDS011;35253;34.688;33.040;2023-06-26T11:38:59;10.80;;;6.47;;
49376;SDS011;35253;34.688;33.040;2023-06-26T11:41:27;12.80;;;7.00;;
49376;SDS011;35253;34.688;33.040;2023-06-26T11:44:03;6.60;;;5.25;;
49376;SDS011;35253;34.688;33.040;2023-06-26T11:46:31;12.60;;;5.43;;
49376;SDS011;35253;34.688;33.040;2023-06-26T11:48:57;10.35;;;7.88;;
49376;SDS011;35253;34.688;33.040;2023-06-26T11:51:23;13.77;;;6.55;;
49376;SDS011;35253;34.688;33.040;2023-06-26T11:53:52;7.77;;;5.73;;
49376;SDS011;35253;34.688;33.040;2023-06-26T11:56:18;14.40;;;6.63;;
49376;SDS011;35253;34.688;33.040;2023-06-26T11:59:00;7.43;;;5.95;;
49376;SDS011;35253;34.688;33.040;2023-06-26T12:01:40;11.98;;;6.15;;
49376;SDS011;35253;34.688;33.040;2023-06-26T12:04:11;10.90;;;6.55;;
49376;SDS011;35253;34.688;33.040;2023-06-26T12:06:40;12.18;;;6.03;;
49376;SDS011;35253;34.688;33.040;2023-06-26T12:09:09;12.40;;;6.00;;
49376;SDS011;35253;34.688;33.040;2023-06-26T12:11:42;9.93;;;6.50;;
49376;SDS011;35253;34.688;33.040;2023-06-26T12:14:09;16.08;;;8.52;;
49376;SDS011;35253;34.688;33.040;2023-06-26T12:16:36;16.65;;;8.93;;
49376;SDS011;35253;34.688;33.040;2023-06-26T12:19:03;10.73;;;5.90;;
49376;SDS011;35253;34.688;33.040;2023-06-26T12:23:59;11.32;;;6.13;;
49376;SDS011;35253;34.688;33.040;2023-06-26T12:26:26;10.57;;;6.72;;
49376;SDS011;35253;34.688;33.040;2023-06-26T12:28:53;11.00;;;5.18;;
49376;SDS011;35253;34.688;33.040;2023-06-26T12:31:20;8.20;;;6.00;;
49376;SDS011;35253;34.688;33.040;2023-06-26T12:33:47;10.45;;;5.90;;
49376;SDS011;35253;34.688;33.040;2023-06-26T12:36:13;14.63;;;6.80;;
49376;SDS011;35253;34.688;33.040;2023-06-26T12:38:40;12.45;;;6.30;;
49376;SDS011;35253;34.688;33.040;2023-06-26T12:41:11;7.43;;;6.07;;
49376;SDS011;35253;34.688;33.040;2023-06-26T12:43:39;7.07;;;5.55;;
49376;SDS011;35253;34.688;33.040;2023-06-26T12:46:05;13.95;;;6.63;;
49376;SDS011;35253;34.688;33.040;2023-06-26T12:51:11;8.38;;;6.05;;
49376;SDS011;35253;34.688;33.040;2023-06-26T12:53:38;11.68;;;8.45;;
49376;SDS011;35253;34.688;33.040;2023-06-26T12:56:05;11.70;;;6.75;;
49376;SDS011;35253;34.688;33.040;2023-06-26T13:01:04;13.88;;;5.93;;
49376;SDS011;35253;34.688;33.040;2023-06-26T13:03:32;12.65;;;6.28;;
49376;SDS011;35253;34.688;33.040;2023-06-26T13:05:58;16.98;;;8.02;;
49376;SDS011;35253;34.688;33.040;2023-06-26T13:08:24;10.80;;;6.13;;
49376;SDS011;35253;34.688;33.040;2023-06-26T13:10:49;12.75;;;6.55;;
49376;SDS011;35253;34.688;33.040;2023-06-26T13:13:15;10.70;;;6.63;;
49376;SDS011;35253;34.688;33.040;2023-06-26T13:15:41;9.50;;;6.28;;
49376;SDS011;35253;34.688;33.040;2023-06-26T13:18:07;9.43;;;6.25;;
49376;SDS011;35253;34.688;33.040;2023-06-26T13:20:33;12.57;;;6.40;;
49376;SDS011;35253;34.688;33.040;2023-06-26T13:22:58;11.52;;;6.85;;
49376;SDS011;35253;34.688;33.040;2023-06-26T13:25:24;10.68;;;5.65;;
49376;SDS011;35253;34.688;33.040;2023-06-26T13:27:50;12.52;;;7.55;;
49376;SDS011;35253;34.688;33.040;2023-06-26T13:30:15;10.50;;;6.72;;
49376;SDS011;35253;34.688;33.040;2023-06-26T13:32:41;11.55;;;6.72;;
49376;SDS011;35253;34.688;33.040;2023-06-26T13:35:08;11.50;;;6.28;;
49376;SDS011;35253;34.688;33.040;2023-06-26T13:37:35;11.05;;;6.28;;
49376;SDS011;35253;34.688;33.040;2023-06-26T13:40:02;17.55;;;7.57;;
49376;SDS011;35253;34.688;33.040;2023-06-26T13:42:28;12.05;;;7.90;;
49376;SDS011;35253;34.688;33.040;2023-06-26T13:44:54;12.30;;;6.20;;
49376;SDS011;35253;34.688;33.040;2023-06-26T13:47:20;13.07;;;5.78;;
49376;SDS011;35253;34.688;33.040;2023-06-26T13:49:46;23.95;;;7.32;;
49376;SDS011;35253;34.688;33.040;2023-06-26T13:52:12;10.40;;;6.13;;
49376;SDS011;35253;34.688;33.040;2023-06-26T13:54:37;13.20;;;6.75;;
49376;SDS011;35253;34.688;33.040;2023-06-26T13:57:08;16.83;;;7.40;;
49376;SDS011;35253;34.688;33.040;2023-06-26T13:59:36;15.93;;;6.57;;
49376;SDS011;35253;34.688;33.040;2023-06-26T14:02:03;14.38;;;6.63;;
49376;SDS011;35253;34.688;33.040;2023-06-26T14:04:30;23.58;;;8.90;;
49376;SDS011;35253;34.688;33.040;2023-06-26T14:06:56;9.88;;;7.28;;
49376;SDS011;35253;34.688;33.040;2023-06-26T14:09:21;12.55;;;7.28;;
49376;SDS011;35253;34.688;33.040;2023-06-26T14:11:47;12.68;;;7.00;;
49376;SDS011;35253;34.688;33.040;2023-06-26T14:14:13;11.98;;;6.28;;
49376;SDS011;35253;34.688;33.040;2023-06-26T14:16:39;18.85;;;7.28;;
49376;SDS011;35253;34.688;33.040;2023-06-26T14:19:07;11.95;;;6.45;;
49376;SDS011;35253;34.688;33.040;2023-06-26T14:21:40;22.30;;;7.78;;
49376;SDS011;35253;34.688;33.040;2023-06-26T14:24:06;9.65;;;5.80;;
49376;SDS011;35253;34.688;33.040;2023-06-26T14:26:32;10.73;;;7.50;;
49376;SDS011;35253;34.688;33.040;2023-06-26T14:28:59;10.88;;;6.13;;
49376;SDS011;35253;34.688;33.040;2023-06-26T14:31:27;11.67;;;8.47;;
49376;SDS011;35253;34.688;33.040;2023-06-26T14:33:53;18.35;;;8.68;;
49376;SDS011;35253;34.688;33.040;2023-06-26T14:36:19;12.73;;;6.50;;
49376;SDS011;35253;34.688;33.040;2023-06-26T14:38:45;13.35;;;6.85;;
49376;SDS011;35253;34.688;33.040;2023-06-26T14:41:11;16.15;;;8.25;;
49376;SDS011;35253;34.688;33.040;2023-06-26T14:43:38;14.85;;;8.73;;
49376;SDS011;35253;34.688;33.040;2023-06-26T14:46:04;14.82;;;7.53;;
49376;SDS011;35253;34.688;33.040;2023-06-26T14:48:34;14.40;;;7.95;;
49376;SDS011;35253;34.688;33.040;2023-06-26T14:51:03;16.05;;;7.22;;
49376;SDS011;35253;34.688;33.040;2023-06-26T14:53:28;11.13;;;7.70;;
49376;SDS011;35253;34.688;33.040;2023-06-26T14:55:54;9.65;;;7.15;;